createdAt,value
2018-09-22T00:04:57.712Z,100437.44
2018-09-22T00:09:58.432Z,100431.93
2018-09-22T00:14:56.415Z,100446.22
2018-09-22T00:19:54.325Z,100445.10
2018-09-22T00:24:52.517Z,100442.78
2018-09-22T00:29:50.432Z,100462.33
2018-09-22T00:34:48.156Z,100463.47
2018-09-22T00:39:49.449Z,100460.73
2018-09-22T00:44:47.403Z,100478.45
2018-09-22T00:49:45.143Z,100478.77
2018-09-22T00:54:42.984Z,100483.13
2018-09-22T00:59:41.064Z,100487.25
2018-09-22T01:04:39.092Z,100486.45
2018-09-22T01:09:42.149Z,100488.41
2018-09-22T01:14:40.831Z,100506.22
2018-09-22T01:19:38.871Z,100514.64
2018-09-22T01:24:37.314Z,100527.02
2018-09-22T01:29:35.680Z,100527.92
2018-09-22T01:34:33.795Z,100539.88
2018-09-22T01:39:37.938Z,100553.11
2018-09-22T01:44:35.909Z,100557.85
2018-09-22T01:49:33.820Z,100556.34
2018-09-22T01:54:31.883Z,100572.75
2018-09-22T01:59:29.917Z,100575.48
2018-09-22T02:04:28.008Z,100580.15
2018-09-22T02:09:34.031Z,100580.45
2018-09-22T02:14:32.383Z,100587.64
2018-09-22T02:19:39.788Z,100581.75
2018-09-22T02:24:37.805Z,100594.52
2018-09-22T02:29:36.020Z,100595.95
2018-09-22T02:34:34.088Z,100604.31
2018-09-22T02:39:37.406Z,100609.81
2018-09-22T02:44:35.657Z,100616.30
2018-09-22T02:49:33.498Z,100621.26
2018-09-22T02:54:31.619Z,100623.34
2018-09-22T02:59:29.461Z,100619.89
2018-09-22T03:04:27.640Z,100623.67
2018-09-22T03:09:38.051Z,100628.94
2018-09-22T03:14:36.488Z,100640.54
2018-09-22T03:19:34.407Z,100649.77
2018-09-22T03:24:32.390Z,100647.73
2018-09-22T03:29:30.396Z,100655.84
2018-09-22T03:34:28.301Z,100655.63
2018-09-22T03:39:31.248Z,100656.16
2018-09-22T03:44:29.792Z,100664.17
2018-09-22T03:49:28.057Z,100676.00
2018-09-22T03:54:25.969Z,100678.20
2018-09-22T03:59:24.057Z,100678.05
2018-09-22T04:04:22.458Z,100674.63
2018-09-22T04:09:29.630Z,100681.73
2018-09-22T04:14:27.553Z,100696.58
2018-09-22T04:19:25.516Z,100683.33
2018-09-22T04:24:23.346Z,100692.23
2018-09-22T04:29:21.590Z,100697.26
2018-09-22T04:34:19.828Z,100706.99
2018-09-22T04:39:18.967Z,100702.01
2018-09-22T04:44:18.280Z,100715.57
2018-09-22T04:49:16.500Z,100716.20
2018-09-22T04:54:14.703Z,100721.08
2018-09-22T04:59:12.732Z,100731.69
2018-09-22T05:04:10.716Z,100741.22
2018-09-22T05:09:12.381Z,100737.95
2018-09-22T05:14:10.869Z,100740.91
2018-09-22T05:19:08.972Z,100747.92
2018-09-22T05:24:06.852Z,100768.55
2018-09-22T05:29:05.158Z,100771.94
2018-09-22T05:34:03.090Z,100761.92
2018-09-22T05:39:01.903Z,100759.11
2018-09-22T05:44:00.903Z,100773.48
2018-09-22T05:49:00.228Z,100775.95
2018-09-22T05:53:58.383Z,100772.27
2018-09-22T05:58:56.338Z,100776.43
2018-09-22T06:03:54.525Z,100785.06
2018-09-22T06:08:54.201Z,100791.69
2018-09-22T06:13:54.999Z,100799.95
2018-09-22T06:18:54.343Z,100795.64
2018-09-22T06:23:54.202Z,100793.50
2018-09-22T06:28:55.361Z,100793.41
2018-09-22T06:33:57.057Z,100793.48
2018-09-22T06:38:57.942Z,100802.14
2018-09-22T06:43:59.540Z,100808.46
2018-09-22T06:48:58.367Z,100816.66
2018-09-22T06:53:57.956Z,100820.43
2018-09-22T06:58:57.695Z,100817.23
2018-09-22T07:03:58.502Z,100815.80
2018-09-22T07:08:57.158Z,100821.19
2018-09-22T07:13:58.346Z,100826.55
2018-09-22T07:18:58.227Z,100824.45
2018-09-22T07:23:57.073Z,100824.37
2018-09-22T07:28:56.915Z,100829.86
2018-09-22T07:33:55.510Z,100833.20
2018-09-22T07:38:56.964Z,100834.74
2018-09-22T07:43:56.699Z,100834.84
2018-09-22T07:48:55.784Z,100835.37
2018-09-22T07:53:59.966Z,100841.83
2018-09-22T07:58:59.890Z,100848.87
2018-09-22T08:03:59.669Z,100857.87
2018-09-22T08:08:59.809Z,100865.16
2018-09-22T08:14:04.139Z,100855.91
2018-09-22T08:19:06.850Z,100857.59
2018-09-22T08:24:08.499Z,100859.52
2018-09-22T08:29:09.358Z,100857.88
2018-09-22T08:34:09.645Z,100865.76
2018-09-22T08:39:17.852Z,100870.37
2018-09-22T08:44:18.454Z,100854.77
2018-09-22T08:49:20.559Z,100863.17
2018-09-22T08:54:21.406Z,100858.98
2018-09-22T08:59:22.706Z,100858.95
2018-09-22T09:04:27.122Z,100864.06
2018-09-22T09:09:33.397Z,100869.28
2018-09-22T09:14:36.579Z,100874.59
2018-09-22T09:19:42.307Z,100892.53
2018-09-22T09:24:44.669Z,100871.98
2018-09-22T09:29:49.558Z,100846.94
2018-09-22T09:34:48.852Z,100847.36
2018-09-22T09:40:01.459Z,100848.57
2018-09-22T09:45:04.226Z,100856.00
2018-09-22T09:50:08.460Z,100854.05
2018-09-22T09:55:09.845Z,100843.66
2018-09-22T10:00:11.156Z,100836.90
2018-09-22T10:05:11.558Z,100829.36
2018-09-22T10:10:12.992Z,100837.13
2018-09-22T10:15:16.091Z,100831.84
2018-09-22T10:20:18.658Z,100827.63
2018-09-22T10:25:17.719Z,100821.16
2018-09-22T10:30:22.515Z,100813.79
2018-09-22T10:35:25.199Z,100813.22
2018-09-22T10:40:30.106Z,100818.94
2018-09-22T10:45:44.328Z,100819.84
2018-09-22T10:50:49.198Z,100819.17
2018-09-22T10:55:56.318Z,100819.36
2018-09-22T11:00:59.852Z,100820.63
2018-09-22T11:06:02.405Z,100827.06
2018-09-22T11:11:06.625Z,100830.81
2018-09-22T11:16:06.385Z,100824.30
2018-09-22T11:21:14.674Z,100811.06
2018-09-22T11:26:17.177Z,100797.19
2018-09-22T11:31:31.763Z,100794.68
2018-09-22T11:36:33.060Z,100789.48
2018-09-22T11:41:32.367Z,100787.66
2018-09-22T11:46:31.172Z,100798.53
2018-09-22T11:51:33.658Z,100765.38
2018-09-22T11:56:34.307Z,100774.48
2018-09-22T12:01:36.504Z,100779.59
2018-09-22T12:06:36.909Z,100763.91
2018-09-22T12:11:37.242Z,100754.56
2018-09-22T12:16:36.505Z,100751.00
2018-09-22T12:21:40.076Z,100763.44
2018-09-22T12:26:41.612Z,100776.39
2018-09-22T12:31:44.140Z,100780.62
2018-09-22T12:36:42.946Z,100766.00
2018-09-22T12:41:44.742Z,100765.58
2018-09-22T12:46:47.117Z,100752.29
2018-09-22T12:51:48.259Z,100742.82
2018-09-22T12:56:47.580Z,100731.32
2018-09-22T13:01:48.144Z,100747.26
2018-09-22T13:06:48.300Z,100749.75
2018-09-22T13:11:50.295Z,100741.36
2018-09-22T13:16:51.971Z,100736.64
2018-09-22T13:21:54.469Z,100746.93
2018-09-22T13:26:54.013Z,100746.95
2018-09-22T13:31:58.815Z,100739.45
2018-09-22T13:37:03.974Z,100696.70
2018-09-22T13:42:05.002Z,100700.41
2018-09-22T13:47:05.825Z,100707.34
2018-09-22T13:52:04.348Z,100713.16
2018-09-22T13:57:05.570Z,100696.83
2018-09-22T14:02:05.592Z,100701.67
2018-09-22T14:07:05.084Z,100697.39
2018-09-22T14:12:05.372Z,100704.37
2018-09-22T14:17:08.889Z,100713.92
2018-09-22T14:22:08.840Z,100686.25
2018-09-22T14:27:08.963Z,100703.08
2018-09-22T14:32:09.809Z,100712.73
2018-09-22T14:37:12.032Z,100698.86
2018-09-22T14:42:12.248Z,100688.34
2018-09-22T14:47:11.142Z,100697.53
2018-09-22T14:52:10.448Z,100695.56
2018-09-22T14:57:10.352Z,100692.33
2018-09-22T15:02:11.087Z,100695.63
2018-09-22T15:07:09.527Z,100695.98
2018-09-22T15:12:15.440Z,100686.09
2018-09-22T15:17:14.686Z,100685.09
2018-09-22T15:22:14.786Z,100681.56
2018-09-22T15:27:16.967Z,100678.64
2018-09-22T15:32:16.772Z,100671.77
2018-09-22T15:37:15.240Z,100690.72
2018-09-22T15:42:14.287Z,100684.75
2018-09-22T15:47:14.976Z,100662.66
2018-09-22T15:52:17.830Z,100681.66
2018-09-22T15:57:18.255Z,100683.85
2018-09-22T16:02:17.443Z,100721.98
2018-09-22T16:07:18.158Z,100720.59
2018-09-22T16:12:19.185Z,100773.20
2018-09-22T16:17:18.444Z,100781.89
2018-09-22T16:22:18.653Z,100773.11
2018-09-22T16:27:19.052Z,100761.11
2018-09-22T16:32:18.809Z,100770.92
2018-09-22T16:37:20.747Z,100778.89
2018-09-22T16:42:20.989Z,100778.30
2018-09-22T16:47:21.332Z,100782.78
2018-09-22T16:52:20.272Z,100764.14
2018-09-22T16:57:20.085Z,100759.36
2018-09-22T17:02:20.831Z,100783.39
2018-09-22T17:07:20.318Z,100767.98
2018-09-22T17:12:19.338Z,100774.52
2018-09-22T17:17:21.719Z,100754.66
2018-09-22T17:22:20.899Z,100769.03
2018-09-22T17:27:22.176Z,100770.39
2018-09-22T17:32:21.281Z,100755.42
2018-09-22T17:37:19.952Z,100780.16
2018-09-22T17:42:19.060Z,100778.61
2018-09-22T17:47:18.691Z,100790.63
2018-09-22T17:52:17.279Z,100779.61
2018-09-22T17:57:16.081Z,100773.19
2018-09-22T18:02:14.359Z,100764.60
2018-09-22T18:07:12.482Z,100783.40
2018-09-22T18:12:11.513Z,100782.92
2018-09-22T18:17:11.215Z,100778.30
2018-09-22T18:22:09.776Z,100784.23
2018-09-22T18:27:08.792Z,100789.63
2018-09-22T18:32:09.235Z,100786.59
2018-09-22T18:37:08.599Z,100778.77
2018-09-22T18:42:07.118Z,100767.11
2018-09-22T18:47:07.448Z,100770.88
2018-09-22T18:52:06.040Z,100782.80
2018-09-22T18:57:04.618Z,100785.19
2018-09-22T19:02:05.992Z,100799.41
2018-09-22T19:07:05.101Z,100797.88
2018-09-22T19:12:05.248Z,100805.94
2018-09-22T19:17:11.895Z,100807.17
2018-09-22T19:22:15.081Z,100805.09
2018-09-22T19:27:26.186Z,100813.99
2018-09-22T19:32:32.399Z,100815.50
2018-09-22T19:37:42.075Z,100828.26
2018-09-22T19:42:48.117Z,100823.20
2018-09-22T19:47:53.977Z,100819.19
2018-09-22T19:52:52.747Z,100821.50
2018-09-22T19:57:55.226Z,100812.53
2018-09-22T20:02:54.363Z,100812.82
2018-09-22T20:07:57.863Z,100805.44
2018-09-22T20:12:57.542Z,100804.24
2018-09-22T20:17:55.916Z,100794.16
2018-09-22T20:22:54.801Z,100784.42
2018-09-22T20:27:53.335Z,100782.79
2018-09-22T20:32:52.898Z,100784.70
2018-09-22T20:37:51.520Z,100794.47
2018-09-22T20:42:53.574Z,100805.78
2018-09-22T20:47:54.825Z,100786.20
2018-09-22T20:52:53.628Z,100776.45
2018-09-22T20:57:52.846Z,100775.11
2018-09-22T21:02:51.189Z,100769.30
2018-09-22T21:07:50.249Z,100759.92
2018-09-22T21:12:50.461Z,100755.02
2018-09-22T21:17:51.381Z,100756.58
2018-09-22T21:22:53.557Z,100752.66
2018-09-22T21:27:53.166Z,100734.51
2018-09-22T21:32:52.409Z,100742.98
2018-09-22T21:37:51.846Z,100736.90
2018-09-22T21:42:51.289Z,100731.00
2018-09-22T21:47:49.441Z,100730.77
2018-09-22T21:52:47.767Z,100729.08
2018-09-22T21:57:47.752Z,100737.34
2018-09-22T22:02:46.105Z,100738.85
2018-09-22T22:07:44.521Z,100730.77
2018-09-22T22:12:46.830Z,100727.43
2018-09-22T22:17:45.808Z,100712.98
2018-09-22T22:22:44.361Z,100703.19
2018-09-22T22:27:44.737Z,100722.24
2018-09-22T22:32:45.548Z,100715.42
2018-09-22T22:37:44.800Z,100699.25
2018-09-22T22:42:43.225Z,100713.06
2018-09-22T22:47:43.334Z,100714.27
2018-09-22T22:52:43.928Z,100696.25
2018-09-22T22:57:42.658Z,100695.61
2018-09-22T23:02:46.106Z,100692.55
2018-09-22T23:07:47.030Z,100680.03
2018-09-22T23:12:46.158Z,100681.37
2018-09-22T23:17:44.984Z,100681.98
2018-09-22T23:22:44.197Z,100676.23
2018-09-22T23:27:43.460Z,100682.14
2018-09-22T23:32:42.626Z,100678.31
2018-09-22T23:37:41.892Z,100668.03
2018-09-22T23:42:42.241Z,100675.56
2018-09-22T23:47:41.941Z,100673.48
2018-09-22T23:52:40.589Z,100665.16
2018-09-22T23:57:40.255Z,100657.89
